sensor_id;sensor_type;location;lat;lon;timestamp;temperature;humidity
18240;DHT22;9244;50.828;4.718;2023-11-21T00:00:39;9.30;99.90
18240;DHT22;9244;50.828;4.718;2023-11-21T00:03:05;9.20;99.90
18240;DHT22;9244;50.828;4.718;2023-11-21T00:05:32;9.20;99.90
18240;DHT22;9244;50.828;4.718;2023-11-21T00:08:00;9.10;99.90
18240;DHT22;9244;50.828;4.718;2023-11-21T00:10:25;9.20;99.90
18240;DHT22;9244;50.828;4.718;2023-11-21T00:12:52;9.20;99.90
18240;DHT22;9244;50.828;4.718;2023-11-21T00:15:20;9.10;99.90
18240;DHT22;9244;50.828;4.718;2023-11-21T00:17:47;9.20;99.90
18240;DHT22;9244;50.828;4.718;2023-11-21T00:20:12;9.10;99.90
18240;DHT22;9244;50.828;4.718;2023-11-21T00:22:41;9.20;99.90
18240;DHT22;9244;50.828;4.718;2023-11-21T00:25:07;9.20;99.90
18240;DHT22;9244;50.828;4.718;2023-11-21T00:27:37;9.20;99.90
18240;DHT22;9244;50.828;4.718;2023-11-21T00:30:06;9.20;99.90
18240;DHT22;9244;50.828;4.718;2023-11-21T00:32:32;9.20;99.90
18240;DHT22;9244;50.828;4.718;2023-11-21T00:34:57;9.10;99.90
18240;DHT22;9244;50.828;4.718;2023-11-21T00:37:24;9.10;99.90
18240;DHT22;9244;50.828;4.718;2023-11-21T00:39:50;9.00;99.90
18240;DHT22;9244;50.828;4.718;2023-11-21T00:42:18;9.00;99.90
18240;DHT22;9244;50.828;4.718;2023-11-21T00:44:43;9.00;99.90
18240;DHT22;9244;50.828;4.718;2023-11-21T00:47:09;9.00;99.90
18240;DHT22;9244;50.828;4.718;2023-11-21T00:49:37;9.00;99.90
18240;DHT22;9244;50.828;4.718;2023-11-21T00:52:05;9.10;99.90
18240;DHT22;9244;50.828;4.718;2023-11-21T00:54:30;9.10;99.90
18240;DHT22;9244;50.828;4.718;2023-11-21T00:56:56;9.20;99.90
18240;DHT22;9244;50.828;4.718;2023-11-21T00:59:22;9.10;99.90
18240;DHT22;9244;50.828;4.718;2023-11-21T01:01:52;9.10;99.90
18240;DHT22;9244;50.828;4.718;2023-11-21T01:04:21;9.10;99.90
18240;DHT22;9244;50.828;4.718;2023-11-21T01:06:47;9.10;99.90
18240;DHT22;9244;50.828;4.718;2023-11-21T01:09:15;9.00;99.90
18240;DHT22;9244;50.828;4.718;2023-11-21T01:11:43;9.00;99.90
18240;DHT22;9244;50.828;4.718;2023-11-21T01:14:11;8.90;99.90
18240;DHT22;9244;50.828;4.718;2023-11-21T01:16:38;8.80;99.90
18240;DHT22;9244;50.828;4.718;2023-11-21T01:19:06;8.70;99.90
18240;DHT22;9244;50.828;4.718;2023-11-21T01:21:32;8.50;99.90
18240;DHT22;9244;50.828;4.718;2023-11-21T01:24:02;8.30;99.90
18240;DHT22;9244;50.828;4.718;2023-11-21T01:26:28;8.20;99.90
18240;DHT22;9244;50.828;4.718;2023-11-21T01:28:56;8.20;99.90
18240;DHT22;9244;50.828;4.718;2023-11-21T01:31:21;8.20;99.90
18240;DHT22;9244;50.828;4.718;2023-11-21T01:33:47;8.20;99.90
18240;DHT22;9244;50.828;4.718;2023-11-21T01:36:14;8.30;99.90
18240;DHT22;9244;50.828;4.718;2023-11-21T01:38:40;8.30;99.90
18240;DHT22;9244;50.828;4.718;2023-11-21T01:41:08;8.30;99.90
18240;DHT22;9244;50.828;4.718;2023-11-21T01:43:36;8.20;99.90
18240;DHT22;9244;50.828;4.718;2023-11-21T01:46:02;8.20;99.90
18240;DHT22;9244;50.828;4.718;2023-11-21T01:48:29;8.30;99.90
18240;DHT22;9244;50.828;4.718;2023-11-21T01:50:55;8.30;99.90
18240;DHT22;9244;50.828;4.718;2023-11-21T01:53:21;8.30;99.90
18240;DHT22;9244;50.828;4.718;2023-11-21T01:55:47;8.40;99.90
18240;DHT22;9244;50.828;4.718;2023-11-21T01:58:12;8.40;99.90
18240;DHT22;9244;50.828;4.718;2023-11-21T02:00:39;8.50;99.90
18240;DHT22;9244;50.828;4.718;2023-11-21T02:03:04;8.50;99.90
18240;DHT22;9244;50.828;4.718;2023-11-21T02:05:32;8.50;99.90
18240;DHT22;9244;50.828;4.718;2023-11-21T02:07:58;8.60;99.90
18240;DHT22;9244;50.828;4.718;2023-11-21T02:10:28;8.60;99.90
18240;DHT22;9244;50.828;4.718;2023-11-21T02:12:54;8.60;99.90
18240;DHT22;9244;50.828;4.718;2023-11-21T02:15:22;8.60;99.90
18240;DHT22;9244;50.828;4.718;2023-11-21T02:17:52;8.60;99.90
18240;DHT22;9244;50.828;4.718;2023-11-21T02:20:21;8.70;99.90
18240;DHT22;9244;50.828;4.718;2023-11-21T02:25:32;8.80;99.90
18240;DHT22;9244;50.828;4.718;2023-11-21T02:28:03;8.70;99.90
18240;DHT22;9244;50.828;4.718;2023-11-21T02:30:32;8.70;99.90
18240;DHT22;9244;50.828;4.718;2023-11-21T02:32:58;8.60;99.90
18240;DHT22;9244;50.828;4.718;2023-11-21T02:35:23;8.60;99.90
18240;DHT22;9244;50.828;4.718;2023-11-21T02:37:51;8.50;99.90
18240;DHT22;9244;50.828;4.718;2023-11-21T02:40:17;8.50;99.90
18240;DHT22;9244;50.828;4.718;2023-11-21T02:42:51;8.50;99.90
18240;DHT22;9244;50.828;4.718;2023-11-21T02:45:20;8.60;99.90
18240;DHT22;9244;50.828;4.718;2023-11-21T02:47:49;8.60;99.90
18240;DHT22;9244;50.828;4.718;2023-11-21T02:50:17;8.70;99.90
18240;DHT22;9244;50.828;4.718;2023-11-21T02:52:44;8.70;99.90
18240;DHT22;9244;50.828;4.718;2023-11-21T02:55:10;8.70;99.90
18240;DHT22;9244;50.828;4.718;2023-11-21T02:57:36;8.70;99.90
18240;DHT22;9244;50.828;4.718;2023-11-21T03:00:02;8.70;99.90
18240;DHT22;9244;50.828;4.718;2023-11-21T03:02:28;8.70;99.90
18240;DHT22;9244;50.828;4.718;2023-11-21T03:04:56;8.70;99.90
18240;DHT22;9244;50.828;4.718;2023-11-21T03:07:26;8.60;99.90
18240;DHT22;9244;50.828;4.718;2023-11-21T03:09:56;8.60;99.90
18240;DHT22;9244;50.828;4.718;2023-11-21T03:12:27;8.60;99.90
18240;DHT22;9244;50.828;4.718;2023-11-21T03:14:53;8.60;99.90
18240;DHT22;9244;50.828;4.718;2023-11-21T03:17:19;8.60;99.90
18240;DHT22;9244;50.828;4.718;2023-11-21T03:19:45;8.60;99.90
18240;DHT22;9244;50.828;4.718;2023-11-21T03:22:13;8.60;99.90
18240;DHT22;9244;50.828;4.718;2023-11-21T03:24:38;8.60;99.90
18240;DHT22;9244;50.828;4.718;2023-11-21T03:27:04;8.60;99.90
18240;DHT22;9244;50.828;4.718;2023-11-21T03:29:30;8.80;99.90
18240;DHT22;9244;50.828;4.718;2023-11-21T03:31:56;8.80;99.90
18240;DHT22;9244;50.828;4.718;2023-11-21T03:34:25;8.70;99.90
18240;DHT22;9244;50.828;4.718;2023-11-21T03:36:56;8.70;99.90
18240;DHT22;9244;50.828;4.718;2023-11-21T03:39:24;8.80;99.90
18240;DHT22;9244;50.828;4.718;2023-11-21T03:41:53;8.80;99.90
18240;DHT22;9244;50.828;4.718;2023-11-21T03:44:21;8.80;99.90
18240;DHT22;9244;50.828;4.718;2023-11-21T03:46:49;8.80;99.90
18240;DHT22;9244;50.828;4.718;2023-11-21T03:49:17;8.90;99.90
18240;DHT22;9244;50.828;4.718;2023-11-21T03:51:45;8.80;99.90
18240;DHT22;9244;50.828;4.718;2023-11-21T03:54:10;8.90;99.90
18240;DHT22;9244;50.828;4.718;2023-11-21T03:56:36;8.90;99.90
18240;DHT22;9244;50.828;4.718;2023-11-21T03:59:07;8.90;99.90
18240;DHT22;9244;50.828;4.718;2023-11-21T04:01:32;8.90;99.90
18240;DHT22;9244;50.828;4.718;2023-11-21T04:03:58;8.90;99.90
18240;DHT22;9244;50.828;4.718;2023-11-21T04:06:24;8.80;99.90
18240;DHT22;9244;50.828;4.718;2023-11-21T04:08:50;8.90;99.90
18240;DHT22;9244;50.828;4.718;2023-11-21T04:11:16;8.90;99.90
18240;DHT22;9244;50.828;4.718;2023-11-21T04:13:42;8.90;99.90
18240;DHT22;9244;50.828;4.718;2023-11-21T04:16:08;8.90;99.90
18240;DHT22;9244;50.828;4.718;2023-11-21T04:18:39;9.00;99.90
18240;DHT22;9244;50.828;4.718;2023-11-21T04:21:05;9.00;99.90
18240;DHT22;9244;50.828;4.718;2023-11-21T04:23:33;8.90;99.90
18240;DHT22;9244;50.828;4.718;2023-11-21T04:26:02;8.90;99.90
18240;DHT22;9244;50.828;4.718;2023-11-21T04:28:28;8.90;99.90
18240;DHT22;9244;50.828;4.718;2023-11-21T04:30:54;8.90;99.90
18240;DHT22;9244;50.828;4.718;2023-11-21T04:33:22;8.90;99.90
18240;DHT22;9244;50.828;4.718;2023-11-21T04:35:48;8.90;99.90
18240;DHT22;9244;50.828;4.718;2023-11-21T04:38:14;8.90;99.90
18240;DHT22;9244;50.828;4.718;2023-11-21T04:40:39;8.90;99.90
18240;DHT22;9244;50.828;4.718;2023-11-21T04:43:05;8.80;99.90
18240;DHT22;9244;50.828;4.718;2023-11-21T04:45:31;8.90;99.90
18240;DHT22;9244;50.828;4.718;2023-11-21T04:47:56;8.90;99.90
18240;DHT22;9244;50.828;4.718;2023-11-21T04:50:22;8.90;99.90
18240;DHT22;9244;50.828;4.718;2023-11-21T04:52:51;8.90;99.90
18240;DHT22;9244;50.828;4.718;2023-11-21T04:55:17;9.00;99.90
18240;DHT22;9244;50.828;4.718;2023-11-21T04:57:42;9.00;99.90
18240;DHT22;9244;50.828;4.718;2023-11-21T05:00:11;8.90;99.90
18240;DHT22;9244;50.828;4.718;2023-11-21T05:02:40;8.90;99.90
18240;DHT22;9244;50.828;4.718;2023-11-21T05:05:09;8.90;99.90
18240;DHT22;9244;50.828;4.718;2023-11-21T05:07:36;8.90;99.90
18240;DHT22;9244;50.828;4.718;2023-11-21T05:10:02;8.90;99.90
18240;DHT22;9244;50.828;4.718;2023-11-21T05:12:33;8.90;99.90
18240;DHT22;9244;50.828;4.718;2023-11-21T05:15:04;8.90;99.90
18240;DHT22;9244;50.828;4.718;2023-11-21T05:17:33;9.00;99.90
18240;DHT22;9244;50.828;4.718;2023-11-21T05:20:00;9.10;99.90
18240;DHT22;9244;50.828;4.718;2023-11-21T05:22:31;9.10;99.90
18240;DHT22;9244;50.828;4.718;2023-11-21T05:25:00;9.10;99.90
18240;DHT22;9244;50.828;4.718;2023-11-21T05:27:25;9.10;99.90
18240;DHT22;9244;50.828;4.718;2023-11-21T05:29:53;9.00;99.90
18240;DHT22;9244;50.828;4.718;2023-11-21T05:32:21;9.00;99.90
18240;DHT22;9244;50.828;4.718;2023-11-21T05:34:52;9.10;99.90
18240;DHT22;9244;50.828;4.718;2023-11-21T05:37:18;9.00;99.90
18240;DHT22;9244;50.828;4.718;2023-11-21T05:39:46;9.00;99.90
18240;DHT22;9244;50.828;4.718;2023-11-21T05:42:12;9.00;99.90
18240;DHT22;9244;50.828;4.718;2023-11-21T05:44:41;9.00;99.90
18240;DHT22;9244;50.828;4.718;2023-11-21T05:47:08;9.00;99.90
18240;DHT22;9244;50.828;4.718;2023-11-21T05:49:36;9.00;99.90
18240;DHT22;9244;50.828;4.718;2023-11-21T05:52:02;9.10;99.90
18240;DHT22;9244;50.828;4.718;2023-11-21T05:54:28;9.10;99.90
18240;DHT22;9244;50.828;4.718;2023-11-21T05:56:54;9.10;99.90
18240;DHT22;9244;50.828;4.718;2023-11-21T05:59:22;9.10;99.90
18240;DHT22;9244;50.828;4.718;2023-11-21T06:01:47;9.10;99.90
18240;DHT22;9244;50.828;4.718;2023-11-21T06:04:18;9.10;99.90
18240;DHT22;9244;50.828;4.718;2023-11-21T06:06:43;9.10;99.90
18240;DHT22;9244;50.828;4.718;2023-11-21T06:09:11;9.20;99.90
18240;DHT22;9244;50.828;4.718;2023-11-21T06:11:37;9.20;99.90
18240;DHT22;9244;50.828;4.718;2023-11-21T06:14:03;9.20;99.90
18240;DHT22;9244;50.828;4.718;2023-11-21T06:16:28;9.20;99.90
18240;DHT22;9244;50.828;4.718;2023-11-21T06:18:56;9.10;99.90
18240;DHT22;9244;50.828;4.718;2023-11-21T06:21:22;9.20;99.90
18240;DHT22;9244;50.828;4.718;2023-11-21T06:23:47;9.20;99.90
18240;DHT22;9244;50.828;4.718;2023-11-21T06:26:16;9.10;99.90
18240;DHT22;9244;50.828;4.718;2023-11-21T06:28:44;9.20;99.90
18240;DHT22;9244;50.828;4.718;2023-11-21T06:31:10;9.20;99.90
18240;DHT22;9244;50.828;4.718;2023-11-21T06:33:40;9.10;99.90
18240;DHT22;9244;50.828;4.718;2023-11-21T06:36:09;9.20;99.90
18240;DHT22;9244;50.828;4.718;2023-11-21T06:38:37;9.20;99.90
18240;DHT22;9244;50.828;4.718;2023-11-21T06:41:03;9.20;99.90
18240;DHT22;9244;50.828;4.718;2023-11-21T06:43:29;9.20;99.90
18240;DHT22;9244;50.828;4.718;2023-11-21T06:45:59;9.20;99.90
18240;DHT22;9244;50.828;4.718;2023-11-21T06:48:25;9.20;99.90
18240;DHT22;9244;50.828;4.718;2023-11-21T06:50:50;9.20;99.90
18240;DHT22;9244;50.828;4.718;2023-11-21T06:53:20;9.20;99.90
18240;DHT22;9244;50.828;4.718;2023-11-21T06:55:45;9.20;99.90
18240;DHT22;9244;50.828;4.718;2023-11-21T06:58:11;9.20;99.90
18240;DHT22;9244;50.828;4.718;2023-11-21T07:00:37;9.30;99.90
18240;DHT22;9244;50.828;4.718;2023-11-21T07:03:02;9.20;99.90
18240;DHT22;9244;50.828;4.718;2023-11-21T07:05:28;9.20;99.90
18240;DHT22;9244;50.828;4.718;2023-11-21T07:07:53;9.30;99.90
18240;DHT22;9244;50.828;4.718;2023-11-21T07:10:19;9.30;99.90
18240;DHT22;9244;50.828;4.718;2023-11-21T07:12:47;9.30;99.90
18240;DHT22;9244;50.828;4.718;2023-11-21T07:15:15;9.30;99.90
18240;DHT22;9244;50.828;4.718;2023-11-21T07:17:41;9.30;99.90
18240;DHT22;9244;50.828;4.718;2023-11-21T07:20:07;9.30;99.90
18240;DHT22;9244;50.828;4.718;2023-11-21T07:22:36;9.40;99.90
18240;DHT22;9244;50.828;4.718;2023-11-21T07:25:02;9.40;99.90
18240;DHT22;9244;50.828;4.718;2023-11-21T07:27:30;9.40;99.90
18240;DHT22;9244;50.828;4.718;2023-11-21T07:29:55;9.40;99.90
18240;DHT22;9244;50.828;4.718;2023-11-21T07:32:21;9.40;99.90
18240;DHT22;9244;50.828;4.718;2023-11-21T07:34:47;9.50;99.90
18240;DHT22;9244;50.828;4.718;2023-11-21T07:37:12;9.50;99.90
18240;DHT22;9244;50.828;4.718;2023-11-21T07:39:42;9.50;99.90
18240;DHT22;9244;50.828;4.718;2023-11-21T07:42:09;9.50;99.90
18240;DHT22;9244;50.828;4.718;2023-11-21T07:44:37;9.60;99.90
18240;DHT22;9244;50.828;4.718;2023-11-21T07:47:02;9.70;99.90
18240;DHT22;9244;50.828;4.718;2023-11-21T07:49:30;9.70;99.90
18240;DHT22;9244;50.828;4.718;2023-11-21T07:51:56;9.70;99.90
18240;DHT22;9244;50.828;4.718;2023-11-21T07:54:21;9.70;99.90
18240;DHT22;9244;50.828;4.718;2023-11-21T07:56:49;9.70;99.90
18240;DHT22;9244;50.828;4.718;2023-11-21T07:59:15;9.70;99.90
18240;DHT22;9244;50.828;4.718;2023-11-21T08:01:43;9.70;99.90
18240;DHT22;9244;50.828;4.718;2023-11-21T08:04:11;9.70;99.90
18240;DHT22;9244;50.828;4.718;2023-11-21T08:06:37;9.70;99.90
18240;DHT22;9244;50.828;4.718;2023-11-21T08:09:04;9.80;99.90
18240;DHT22;9244;50.828;4.718;2023-11-21T08:11:30;9.70;99.90
18240;DHT22;9244;50.828;4.718;2023-11-21T08:13:57;9.70;99.90
18240;DHT22;9244;50.828;4.718;2023-11-21T08:16:25;9.80;99.90
18240;DHT22;9244;50.828;4.718;2023-11-21T08:18:53;9.80;99.90
18240;DHT22;9244;50.828;4.718;2023-11-21T08:21:20;9.80;99.90
18240;DHT22;9244;50.828;4.718;2023-11-21T08:23:45;9.90;99.90
18240;DHT22;9244;50.828;4.718;2023-11-21T08:26:11;9.90;99.90
18240;DHT22;9244;50.828;4.718;2023-11-21T08:28:36;9.90;99.90
18240;DHT22;9244;50.828;4.718;2023-11-21T08:31:02;9.90;99.90
18240;DHT22;9244;50.828;4.718;2023-11-21T08:33:30;9.90;99.90
18240;DHT22;9244;50.828;4.718;2023-11-21T08:35:57;10.00;99.90
18240;DHT22;9244;50.828;4.718;2023-11-21T08:38:23;9.90;99.90
18240;DHT22;9244;50.828;4.718;2023-11-21T08:40:51;10.00;99.90
18240;DHT22;9244;50.828;4.718;2023-11-21T08:43:17;10.00;99.90
18240;DHT22;9244;50.828;4.718;2023-11-21T08:45:48;10.00;99.90
18240;DHT22;9244;50.828;4.718;2023-11-21T08:48:13;10.00;99.90
18240;DHT22;9244;50.828;4.718;2023-11-21T08:50:41;10.00;99.90
18240;DHT22;9244;50.828;4.718;2023-11-21T08:53:07;10.00;99.90
18240;DHT22;9244;50.828;4.718;2023-11-21T08:55:33;10.10;99.90
18240;DHT22;9244;50.828;4.718;2023-11-21T08:58:02;10.20;99.90
18240;DHT22;9244;50.828;4.718;2023-11-21T09:00:31;10.20;99.90
18240;DHT22;9244;50.828;4.718;2023-11-21T09:02:57;10.10;99.90
18240;DHT22;9244;50.828;4.718;2023-11-21T09:05:23;10.20;99.90
18240;DHT22;9244;50.828;4.718;2023-11-21T09:07:48;10.20;99.90
18240;DHT22;9244;50.828;4.718;2023-11-21T09:10:16;10.20;99.90
18240;DHT22;9244;50.828;4.718;2023-11-21T09:12:42;10.30;99.90
18240;DHT22;9244;50.828;4.718;2023-11-21T09:15:08;10.40;99.90
18240;DHT22;9244;50.828;4.718;2023-11-21T09:17:36;10.30;99.90
18240;DHT22;9244;50.828;4.718;2023-11-21T09:20:05;10.30;99.90
18240;DHT22;9244;50.828;4.718;2023-11-21T09:22:31;10.40;99.90
18240;DHT22;9244;50.828;4.718;2023-11-21T09:24:59;10.50;99.90
18240;DHT22;9244;50.828;4.718;2023-11-21T09:27:25;10.50;99.90
18240;DHT22;9244;50.828;4.718;2023-11-21T09:29:56;10.50;99.90
18240;DHT22;9244;50.828;4.718;2023-11-21T09:32:23;10.50;99.90
18240;DHT22;9244;50.828;4.718;2023-11-21T09:34:52;10.60;99.90
18240;DHT22;9244;50.828;4.718;2023-11-21T09:37:19;10.60;99.90
18240;DHT22;9244;50.828;4.718;2023-11-21T09:39:47;10.60;99.90
18240;DHT22;9244;50.828;4.718;2023-11-21T09:42:54;10.70;99.90
18240;DHT22;9244;50.828;4.718;2023-11-21T09:47:46;10.70;99.90
18240;DHT22;9244;50.828;4.718;2023-11-21T09:50:16;10.80;99.90
18240;DHT22;9244;50.828;4.718;2023-11-21T09:53:03;10.80;99.90
18240;DHT22;9244;50.828;4.718;2023-11-21T09:55:37;10.90;99.90
18240;DHT22;9244;50.828;4.718;2023-11-21T09:58:04;10.90;99.90
18240;DHT22;9244;50.828;4.718;2023-11-21T10:00:35;10.80;99.90
18240;DHT22;9244;50.828;4.718;2023-11-21T10:03:01;10.70;99.90
18240;DHT22;9244;50.828;4.718;2023-11-21T10:05:28;10.60;99.90
18240;DHT22;9244;50.828;4.718;2023-11-21T10:07:56;10.70;99.90
18240;DHT22;9244;50.828;4.718;2023-11-21T10:10:23;10.70;99.90
18240;DHT22;9244;50.828;4.718;2023-11-21T10:12:52;10.80;99.90
18240;DHT22;9244;50.828;4.718;2023-11-21T10:15:26;10.90;99.90
18240;DHT22;9244;50.828;4.718;2023-11-21T10:17:53;10.90;99.90
18240;DHT22;9244;50.828;4.718;2023-11-21T10:20:22;10.90;99.90
18240;DHT22;9244;50.828;4.718;2023-11-21T10:22:49;11.00;99.90
18240;DHT22;9244;50.828;4.718;2023-11-21T10:25:15;11.10;99.90
18240;DHT22;9244;50.828;4.718;2023-11-21T10:27:49;11.10;99.90
18240;DHT22;9244;50.828;4.718;2023-11-21T10:30:17;11.10;99.90
18240;DHT22;9244;50.828;4.718;2023-11-21T10:32:43;11.20;99.90
18240;DHT22;9244;50.828;4.718;2023-11-21T10:35:10;11.10;99.90
18240;DHT22;9244;50.828;4.718;2023-11-21T10:37:41;11.10;99.90
18240;DHT22;9244;50.828;4.718;2023-11-21T10:40:11;11.00;99.90
18240;DHT22;9244;50.828;4.718;2023-11-21T10:42:41;11.00;99.90
18240;DHT22;9244;50.828;4.718;2023-11-21T10:45:08;10.90;99.90
18240;DHT22;9244;50.828;4.718;2023-11-21T10:47:44;10.90;99.90
18240;DHT22;9244;50.828;4.718;2023-11-21T10:50:10;10.90;99.90
18240;DHT22;9244;50.828;4.718;2023-11-21T10:52:45;10.90;99.90
18240;DHT22;9244;50.828;4.718;2023-11-21T10:55:24;10.90;99.90
18240;DHT22;9244;50.828;4.718;2023-11-21T10:57:54;10.80;99.90
18240;DHT22;9244;50.828;4.718;2023-11-21T11:00:22;10.90;99.90
18240;DHT22;9244;50.828;4.718;2023-11-21T11:02:51;11.10;99.90
18240;DHT22;9244;50.828;4.718;2023-11-21T11:05:20;11.20;99.90
18240;DHT22;9244;50.828;4.718;2023-11-21T11:07:50;11.20;99.90
18240;DHT22;9244;50.828;4.718;2023-11-21T11:10:20;11.10;99.90
18240;DHT22;9244;50.828;4.718;2023-11-21T11:12:50;11.20;99.90
18240;DHT22;9244;50.828;4.718;2023-11-21T11:15:17;11.20;99.90
18240;DHT22;9244;50.828;4.718;2023-11-21T11:17:45;11.10;99.90
18240;DHT22;9244;50.828;4.718;2023-11-21T11:20:16;11.10;99.90
18240;DHT22;9244;50.828;4.718;2023-11-21T11:28:38;11.30;99.90
18240;DHT22;9244;50.828;4.718;2023-11-21T11:34:32;11.30;99.90
18240;DHT22;9244;50.828;4.718;2023-11-21T11:37:04;11.20;99.90
18240;DHT22;9244;50.828;4.718;2023-11-21T11:42:07;11.20;99.90
18240;DHT22;9244;50.828;4.718;2023-11-21T11:50:06;11.20;99.90
18240;DHT22;9244;50.828;4.718;2023-11-21T11:55:06;11.20;99.90
18240;DHT22;9244;50.828;4.718;2023-11-21T11:57:35;11.10;99.90
18240;DHT22;9244;50.828;4.718;2023-11-21T12:00:12;11.10;99.90
18240;DHT22;9244;50.828;4.718;2023-11-21T12:02:44;11.00;99.90
18240;DHT22;9244;50.828;4.718;2023-11-21T12:05:17;11.00;99.90
18240;DHT22;9244;50.828;4.718;2023-11-21T12:10:14;11.10;99.90
18240;DHT22;9244;50.828;4.718;2023-11-21T12:12:50;11.10;99.90
18240;DHT22;9244;50.828;4.718;2023-11-21T12:15:21;11.30;99.90
18240;DHT22;9244;50.828;4.718;2023-11-21T12:17:48;11.40;99.90
18240;DHT22;9244;50.828;4.718;2023-11-21T12:20:15;11.50;99.90
18240;DHT22;9244;50.828;4.718;2023-11-21T12:22:49;11.60;99.90
18240;DHT22;9244;50.828;4.718;2023-11-21T12:25:22;11.60;99.90
18240;DHT22;9244;50.828;4.718;2023-11-21T12:27:52;11.60;99.90
18240;DHT22;9244;50.828;4.718;2023-11-21T12:30:22;11.90;99.90
18240;DHT22;9244;50.828;4.718;2023-11-21T12:32:51;12.40;99.90
18240;DHT22;9244;50.828;4.718;2023-11-21T12:35:18;12.30;99.90
18240;DHT22;9244;50.828;4.718;2023-11-21T12:37:48;12.10;99.90
18240;DHT22;9244;50.828;4.718;2023-11-21T12:40:16;12.10;99.90
18240;DHT22;9244;50.828;4.718;2023-11-21T12:42:46;12.20;99.90
18240;DHT22;9244;50.828;4.718;2023-11-21T12:47:56;12.50;99.90
18240;DHT22;9244;50.828;4.718;2023-11-21T12:50:26;12.40;99.90
18240;DHT22;9244;50.828;4.718;2023-11-21T12:53:01;12.50;99.90
18240;DHT22;9244;50.828;4.718;2023-11-21T12:55:31;12.30;99.90
18240;DHT22;9244;50.828;4.718;2023-11-21T12:58:02;12.30;99.90
18240;DHT22;9244;50.828;4.718;2023-11-21T13:00:36;12.20;99.90
18240;DHT22;9244;50.828;4.718;2023-11-21T13:03:06;12.10;99.90
18240;DHT22;9244;50.828;4.718;2023-11-21T13:05:36;12.00;99.90
18240;DHT22;9244;50.828;4.718;2023-11-21T13:08:07;11.90;99.90
18240;DHT22;9244;50.828;4.718;2023-11-21T13:10:36;11.90;99.90
18240;DHT22;9244;50.828;4.718;2023-11-21T13:13:08;11.80;99.90
18240;DHT22;9244;50.828;4.718;2023-11-21T13:15:46;11.70;99.90
18240;DHT22;9244;50.828;4.718;2023-11-21T13:18:15;11.70;99.90
18240;DHT22;9244;50.828;4.718;2023-11-21T13:20:42;11.80;99.90
18240;DHT22;9244;50.828;4.718;2023-11-21T13:23:09;11.70;99.90
18240;DHT22;9244;50.828;4.718;2023-11-21T13:25:38;11.70;99.90
18240;DHT22;9244;50.828;4.718;2023-11-21T13:28:06;11.80;99.90
18240;DHT22;9244;50.828;4.718;2023-11-21T13:30:34;11.80;99.90
18240;DHT22;9244;50.828;4.718;2023-11-21T13:33:01;12.00;99.90
18240;DHT22;9244;50.828;4.718;2023-11-21T13:35:31;12.10;99.90
18240;DHT22;9244;50.828;4.718;2023-11-21T13:38:07;12.20;99.90
18240;DHT22;9244;50.828;4.718;2023-11-21T13:40:33;12.20;99.90
18240;DHT22;9244;50.828;4.718;2023-11-21T13:43:05;12.20;99.90
18240;DHT22;9244;50.828;4.718;2023-11-21T13:45:38;12.20;99.90
18240;DHT22;9244;50.828;4.718;2023-11-21T13:48:10;12.10;99.90
18240;DHT22;9244;50.828;4.718;2023-11-21T13:50:36;11.90;99.90
18240;DHT22;9244;50.828;4.718;2023-11-21T13:53:03;11.80;99.90
18240;DHT22;9244;50.828;4.718;2023-11-21T13:55:55;11.70;99.90
18240;DHT22;9244;50.828;4.718;2023-11-21T13:58:23;11.50;99.90
18240;DHT22;9244;50.828;4.718;2023-11-21T14:01:08;11.50;99.90
18240;DHT22;9244;50.828;4.718;2023-11-21T14:03:52;11.40;99.90
18240;DHT22;9244;50.828;4.718;2023-11-21T14:06:23;11.40;99.90
18240;DHT22;9244;50.828;4.718;2023-11-21T14:08:58;11.40;99.90
18240;DHT22;9244;50.828;4.718;2023-11-21T14:11:24;11.30;99.90
18240;DHT22;9244;50.828;4.718;2023-11-21T14:13:52;11.30;99.90
18240;DHT22;9244;50.828;4.718;2023-11-21T14:16:21;11.30;99.90
18240;DHT22;9244;50.828;4.718;2023-11-21T14:18:50;11.30;99.90
18240;DHT22;9244;50.828;4.718;2023-11-21T14:21:21;11.30;99.90
18240;DHT22;9244;50.828;4.718;2023-11-21T14:23:49;11.30;99.90
18240;DHT22;9244;50.828;4.718;2023-11-21T14:26:17;11.30;99.90
18240;DHT22;9244;50.828;4.718;2023-11-21T14:28:43;11.30;99.90
18240;DHT22;9244;50.828;4.718;2023-11-21T14:31:11;11.30;99.90
18240;DHT22;9244;50.828;4.718;2023-11-21T14:33:43;11.30;99.90
18240;DHT22;9244;50.828;4.718;2023-11-21T14:36:09;11.40;99.90
18240;DHT22;9244;50.828;4.718;2023-11-21T14:38:36;11.30;99.90
18240;DHT22;9244;50.828;4.718;2023-11-21T14:41:07;11.30;99.90
18240;DHT22;9244;50.828;4.718;2023-11-21T14:43:35;11.40;99.90
18240;DHT22;9244;50.828;4.718;2023-11-21T14:46:02;11.50;99.90
18240;DHT22;9244;50.828;4.718;2023-11-21T14:48:29;11.40;99.90
18240;DHT22;9244;50.828;4.718;2023-11-21T14:51:18;11.40;99.90
18240;DHT22;9244;50.828;4.718;2023-11-21T14:53:56;11.30;99.90
18240;DHT22;9244;50.828;4.718;2023-11-21T14:56:28;11.40;99.90
18240;DHT22;9244;50.828;4.718;2023-11-21T14:58:57;11.30;99.90
18240;DHT22;9244;50.828;4.718;2023-11-21T15:01:26;11.40;99.90
18240;DHT22;9244;50.828;4.718;2023-11-21T15:04:18;11.30;99.90
18240;DHT22;9244;50.828;4.718;2023-11-21T15:07:05;11.30;99.90
18240;DHT22;9244;50.828;4.718;2023-11-21T15:09:31;11.20;99.90
18240;DHT22;9244;50.828;4.718;2023-11-21T15:11:57;11.20;99.90
18240;DHT22;9244;50.828;4.718;2023-11-21T15:14:31;11.20;99.90
18240;DHT22;9244;50.828;4.718;2023-11-21T15:17:01;11.10;99.90
18240;DHT22;9244;50.828;4.718;2023-11-21T15:19:29;11.10;99.90
18240;DHT22;9244;50.828;4.718;2023-11-21T15:21:56;11.00;99.90
18240;DHT22;9244;50.828;4.718;2023-11-21T15:24:24;11.00;99.90
18240;DHT22;9244;50.828;4.718;2023-11-21T15:26:50;11.00;99.90
18240;DHT22;9244;50.828;4.718;2023-11-21T15:29:19;10.90;99.90
18240;DHT22;9244;50.828;4.718;2023-11-21T15:31:47;10.90;99.90
18240;DHT22;9244;50.828;4.718;2023-11-21T15:34:16;10.80;99.90
18240;DHT22;9244;50.828;4.718;2023-11-21T15:36:42;10.90;99.90
18240;DHT22;9244;50.828;4.718;2023-11-21T15:39:11;10.90;99.90
18240;DHT22;9244;50.828;4.718;2023-11-21T15:41:40;10.80;99.90
18240;DHT22;9244;50.828;4.718;2023-11-21T15:44:07;10.80;99.90
18240;DHT22;9244;50.828;4.718;2023-11-21T15:46:35;10.90;99.90
18240;DHT22;9244;50.828;4.718;2023-11-21T15:49:02;10.90;99.90
18240;DHT22;9244;50.828;4.718;2023-11-21T15:51:36;10.90;99.90
18240;DHT22;9244;50.828;4.718;2023-11-21T15:54:01;10.90;99.90
18240;DHT22;9244;50.828;4.718;2023-11-21T15:56:27;10.90;99.90
18240;DHT22;9244;50.828;4.718;2023-11-21T15:58:55;10.90;99.90
18240;DHT22;9244;50.828;4.718;2023-11-21T16:01:24;10.80;99.90
18240;DHT22;9244;50.828;4.718;2023-11-21T16:03:52;10.80;99.90
18240;DHT22;9244;50.828;4.718;2023-11-21T16:06:22;10.80;99.90
18240;DHT22;9244;50.828;4.718;2023-11-21T16:08:48;10.80;99.90
18240;DHT22;9244;50.828;4.718;2023-11-21T16:11:16;10.80;99.90
18240;DHT22;9244;50.828;4.718;2023-11-21T16:13:41;10.80;99.90
18240;DHT22;9244;50.828;4.718;2023-11-21T16:16:08;10.80;99.90
18240;DHT22;9244;50.828;4.718;2023-11-21T16:18:36;10.80;99.90
18240;DHT22;9244;50.828;4.718;2023-11-21T16:21:04;10.80;99.90
18240;DHT22;9244;50.828;4.718;2023-11-21T16:23:32;10.90;99.90
18240;DHT22;9244;50.828;4.718;2023-11-21T16:25:58;10.80;99.90
18240;DHT22;9244;50.828;4.718;2023-11-21T16:28:28;10.80;99.90
18240;DHT22;9244;50.828;4.718;2023-11-21T16:30:54;10.80;99.90